Time;durP1;ratioP1;P1;durP2;ratioP2;P2;SDS_P1;SDS_P2;PMS_P1;PMS_P2;Temp;Humidity;BMP_temperature;BMP_pressure;BME280_temperature;BME280_humidity;BME280_pressure;Samples;Min_cycle;Max_cycle;Signal;HPM_P1;HPM_P2
2021/10/13 00:02:10;;;;;;;3.70;2.95;;;7.00;99.90;;;;;;5028286;28;20225;-77
2021/10/13 00:04:56;;;;;;;3.30;2.30;;;7.10;99.90;;;;;;5028684;28;20208;-77
2021/10/13 00:07:41;;;;;;;12.52;2.45;;;7.10;99.90;;;;;;5023709;28;20301;-77
2021/10/13 00:10:28;;;;;;;10.25;2.70;;;7.10;99.90;;;;;;5021921;28;20747;-77
2021/10/13 00:13:15;;;;;;;11.48;3.65;;;7.20;99.90;;;;;;5029325;28;20226;-77
2021/10/13 00:16:01;;;;;;;8.52;4.00;;;7.10;99.90;;;;;;5028544;28;20409;-77
2021/10/13 00:18:47;;;;;;;3.35;2.85;;;7.10;99.90;;;;;;5028808;28;20213;-77
2021/10/13 00:21:33;;;;;;;11.23;2.80;;;7.10;99.90;;;;;;5022561;28;20221;-77
2021/10/13 00:24:18;;;;;;;6.18;3.30;;;7.10;99.90;;;;;;5020945;28;20219;-76
2021/10/13 00:27:06;;;;;;;4.05;2.10;;;7.10;99.90;;;;;;5027875;28;20224;-76
2021/10/13 00:29:51;;;;;;;18.17;2.72;;;7.00;99.90;;;;;;5043332;28;20269;-73
2021/10/13 00:32:37;;;;;;;14.77;2.83;;;7.00;99.90;;;;;;5050490;28;20333;-76
2021/10/13 00:35:22;;;;;;;23.90;2.60;;;7.00;99.90;;;;;;5031719;28;20228;-76
2021/10/13 00:38:08;;;;;;;14.35;2.80;;;6.90;99.90;;;;;;5032923;28;20225;-76
2021/10/13 00:40:54;;;;;;;6.45;2.53;;;6.80;99.90;;;;;;5031448;28;20201;-76
2021/10/13 00:43:43;;;;;;;4.28;2.67;;;6.80;99.90;;;;;;5013411;28;20577;-76
2021/10/13 00:46:29;;;;;;;4.50;3.05;;;6.80;99.90;;;;;;5022194;28;20224;-76
2021/10/13 00:49:15;;;;;;;8.85;3.60;;;6.90;99.90;;;;;;5030672;28;20205;-76
2021/10/13 00:52:02;;;;;;;7.40;4.68;;;6.90;99.90;;;;;;5031221;28;20356;-76
2021/10/13 00:54:47;;;;;;;5.85;3.95;;;6.90;99.90;;;;;;5031092;28;20205;-76
2021/10/13 00:57:33;;;;;;;15.87;3.77;;;7.00;99.90;;;;;;5021339;28;20234;-76
2021/10/13 01:00:22;;;;;;;3.85;2.85;;;7.00;99.90;;;;;;5010840;28;20410;-76
2021/10/13 01:03:15;;;;;;;4.88;3.47;;;6.90;99.90;;;;;;5011458;28;20747;-76
2021/10/13 01:06:09;;;;;;;4.00;2.55;;;6.80;99.90;;;;;;5016157;28;20788;-76
2021/10/13 01:09:02;;;;;;;25.88;3.05;;;6.70;99.90;;;;;;5029931;28;20281;-76
2021/10/13 01:12:01;;;;;;;5.47;2.60;;;6.70;99.90;;;;;;5027210;28;20225;-76
2021/10/13 01:14:53;;;;;;;6.80;2.60;;;6.70;99.90;;;;;;5025359;28;20273;-76
2021/10/13 01:17:45;;;;;;;8.35;2.80;;;6.60;99.90;;;;;;5030081;28;20230;-76
2021/10/13 01:20:47;;;;;;;4.80;2.90;;;6.60;99.90;;;;;;5030069;28;20197;-76
2021/10/13 01:24:16;;;;;;;4.63;3.35;;;6.60;99.90;;;;;;5013088;28;20206;-76
2021/10/13 01:27:18;;;;;;;8.07;3.10;;;6.60;99.90;;;;;;5013972;28;20223;-76
2021/10/13 01:30:07;;;;;;;4.03;2.70;;;6.60;99.90;;;;;;5022341;28;20284;-76
2021/10/13 01:33:00;;;;;;;10.07;2.85;;;6.50;99.90;;;;;;5030601;28;20227;-76
2021/10/13 01:35:49;;;;;;;4.20;3.10;;;6.60;99.90;;;;;;5022833;28;20337;-76
2021/10/13 01:38:43;;;;;;;16.55;2.75;;;6.60;99.90;;;;;;5023665;28;20198;-76
2021/10/13 01:41:30;;;;;;;22.05;2.75;;;6.50;99.90;;;;;;5030669;28;20303;-76
2021/10/13 01:44:20;;;;;;;10.88;2.85;;;6.30;99.90;;;;;;5018373;28;20207;-76
2021/10/13 01:47:09;;;;;;;7.18;3.10;;;6.20;99.90;;;;;;5030937;28;20234;-76
2021/10/13 01:49:58;;;;;;;5.38;3.58;;;6.30;99.90;;;;;;5030150;28;20703;-76
2021/10/13 01:52:48;;;;;;;9.60;4.07;;;6.30;99.90;;;;;;5016695;28;20378;-76
2021/10/13 01:55:35;;;;;;;7.45;4.13;;;6.40;99.90;;;;;;5024032;28;20203;-76
2021/10/13 01:58:22;;;;;;;4.78;3.60;;;6.50;99.90;;;;;;5033801;28;20557;-76
2021/10/13 02:01:10;;;;;;;5.10;3.60;;;6.50;99.90;;;;;;5034241;28;20221;-76
2021/10/13 02:04:02;;;;;;;5.53;4.30;;;6.60;99.90;;;;;;5033628;28;20575;-76
2021/10/13 02:06:49;;;;;;;6.72;4.55;;;6.70;99.90;;;;;;5031118;28;20762;-76
2021/10/13 02:09:36;;;;;;;44.95;4.40;;;6.70;99.90;;;;;;5025374;28;20206;-76
2021/10/13 02:12:24;;;;;;;11.93;4.38;;;6.70;99.90;;;;;;5033447;28;20230;-76
2021/10/13 02:15:12;;;;;;;52.55;4.15;;;6.70;99.90;;;;;;5015804;28;20219;-76
2021/10/13 02:18:00;;;;;;;17.73;4.18;;;6.60;99.90;;;;;;5030022;28;20777;-76
2021/10/13 02:20:49;;;;;;;16.00;3.80;;;6.50;99.90;;;;;;5022163;28;20274;-77
2021/10/13 02:23:37;;;;;;;18.30;3.42;;;6.60;99.90;;;;;;5027147;28;20230;-76
2021/10/13 02:26:29;;;;;;;3.92;3.30;;;6.60;99.90;;;;;;5029322;28;20239;-76
2021/10/13 02:29:16;;;;;;;27.58;3.55;;;6.50;99.90;;;;;;5026579;28;20204;-76
2021/10/13 02:32:02;;;;;;;19.52;2.90;;;6.50;99.90;;;;;;5030450;28;20711;-76
2021/10/13 02:34:49;;;;;;;13.20;3.15;;;6.50;99.90;;;;;;5032592;28;20205;-76
2021/10/13 02:37:36;;;;;;;32.13;3.92;;;6.30;99.90;;;;;;5031592;28;20217;-76
2021/10/13 02:40:22;;;;;;;18.75;3.30;;;6.40;99.90;;;;;;5029853;28;20210;-76
2021/10/13 02:43:07;;;;;;;8.15;3.40;;;6.30;99.90;;;;;;5028933;28;20330;-76
2021/10/13 02:45:59;;;;;;;19.98;3.53;;;6.30;99.90;;;;;;5031161;28;20695;-76
2021/10/13 02:48:47;;;;;;;5.55;3.10;;;6.40;99.90;;;;;;5013172;28;20202;-76
2021/10/13 02:51:46;;;;;;;14.10;2.95;;;6.30;99.90;;;;;;5028683;28;20232;-76
2021/10/13 02:54:44;;;;;;;15.77;3.22;;;6.30;99.90;;;;;;5016155;28;20207;-76
2021/10/13 02:57:36;;;;;;;3.22;2.47;;;6.40;99.90;;;;;;5027756;28;20226;-76
2021/10/13 03:00:23;;;;;;;5.80;2.53;;;6.40;99.90;;;;;;5032918;28;20221;-76
2021/10/13 03:03:13;;;;;;;5.18;2.15;;;6.50;99.90;;;;;;5032925;28;20325;-77
2021/10/13 03:06:01;;;;;;;2.83;2.17;;;6.60;99.90;;;;;;5018232;28;20203;-77
2021/10/13 03:08:51;;;;;;;2.90;2.08;;;6.60;99.90;;;;;;5021685;28;20317;-76
2021/10/13 03:11:40;;;;;;;3.15;2.35;;;6.70;99.90;;;;;;5033303;28;20665;-76
2021/10/13 03:14:27;;;;;;;2.50;1.98;;;6.80;99.90;;;;;;5031626;28;20202;-76
2021/10/13 03:17:12;;;;;;;2.72;2.28;;;6.70;99.90;;;;;;5032648;28;20371;-76
2021/10/13 03:19:59;;;;;;;5.25;2.22;;;6.70;99.90;;;;;;5016506;28;20329;-76
2021/10/13 03:22:46;;;;;;;3.83;2.05;;;6.80;99.90;;;;;;5018939;28;20429;-77
2021/10/13 03:25:33;;;;;;;2.85;2.20;;;6.80;99.90;;;;;;5030902;28;20204;-76
2021/10/13 03:28:21;;;;;;;3.78;2.85;;;6.80;99.90;;;;;;5032289;28;20210;-76
2021/10/13 03:31:07;;;;;;;2.70;2.00;;;6.70;99.90;;;;;;5012485;28;20745;-76
2021/10/13 03:33:53;;;;;;;4.53;2.45;;;6.70;99.90;;;;;;5012708;28;20245;-76
2021/10/13 03:36:40;;;;;;;3.17;2.35;;;6.60;99.90;;;;;;5022638;28;20225;-76
2021/10/13 03:39:26;;;;;;;3.00;2.50;;;6.50;99.90;;;;;;5026387;28;20228;-76
2021/10/13 03:42:12;;;;;;;5.05;2.92;;;6.60;99.90;;;;;;5022721;28;20223;-76
2021/10/13 03:44:59;;;;;;;8.40;2.30;;;6.60;99.90;;;;;;5032392;28;20261;-76
2021/10/13 03:47:45;;;;;;;2.40;1.98;;;6.70;99.90;;;;;;5032181;28;20218;-76
2021/10/13 03:50:30;;;;;;;3.38;2.53;;;6.80;99.90;;;;;;5023137;28;20207;-76
2021/10/13 03:53:16;;;;;;;3.42;2.63;;;6.80;99.90;;;;;;5028827;28;20237;-76
2021/10/13 03:56:02;;;;;;;3.55;2.63;;;6.80;99.90;;;;;;5027377;28;20210;-76
2021/10/13 03:58:47;;;;;;;6.90;2.60;;;6.80;99.90;;;;;;5030158;28;20567;-76
2021/10/13 04:01:34;;;;;;;4.20;3.50;;;6.90;99.90;;;;;;5022612;28;20208;-76
2021/10/13 04:04:20;;;;;;;4.10;2.95;;;6.90;99.90;;;;;;5032161;28;20274;-76
2021/10/13 04:07:05;;;;;;;6.90;3.45;;;6.90;99.90;;;;;;5026007;28;20237;-76
2021/10/13 04:09:51;;;;;;;3.67;2.92;;;6.90;99.90;;;;;;5031218;28;20280;-76
2021/10/13 04:12:38;;;;;;;4.65;3.40;;;6.90;99.90;;;;;;5031693;28;20698;-76
2021/10/13 04:15:23;;;;;;;3.83;3.42;;;6.90;99.90;;;;;;5030735;28;20217;-76
2021/10/13 04:18:10;;;;;;;3.95;2.85;;;6.90;99.90;;;;;;5031007;28;20227;-76
2021/10/13 04:20:56;;;;;;;5.47;2.70;;;7.00;99.90;;;;;;5025307;28;20264;-76
2021/10/13 04:23:42;;;;;;;3.35;2.75;;;7.00;99.90;;;;;;5017082;28;20262;-76
2021/10/13 04:26:27;;;;;;;6.55;2.95;;;7.00;99.90;;;;;;5012401;28;20231;-76
2021/10/13 04:29:13;;;;;;;3.97;2.90;;;7.00;99.90;;;;;;5011662;28;20212;-76
2021/10/13 04:31:59;;;;;;;3.80;2.78;;;7.00;99.90;;;;;;5011808;28;20212;-76
2021/10/13 04:34:46;;;;;;;4.43;3.35;;;7.00;99.90;;;;;;5023106;28;20200;-76
2021/10/13 04:37:31;;;;;;;2.95;2.55;;;6.80;99.90;;;;;;5030012;28;20244;-75
2021/10/13 04:40:17;;;;;;;5.35;3.10;;;6.80;99.90;;;;;;5029899;28;20209;-76
2021/10/13 04:43:03;;;;;;;4.10;3.70;;;6.70;99.90;;;;;;5026572;28;20568;-76
2021/10/13 04:45:49;;;;;;;3.33;2.20;;;6.80;99.90;;;;;;5026353;28;20412;-76
2021/10/13 04:48:34;;;;;;;4.10;2.95;;;6.90;99.90;;;;;;5030875;28;20203;-75
2021/10/13 04:51:21;;;;;;;3.15;2.50;;;6.90;99.90;;;;;;5025542;28;20211;-76
2021/10/13 04:54:07;;;;;;;3.85;2.88;;;6.90;99.90;;;;;;5031217;28;20225;-76
2021/10/13 04:56:52;;;;;;;3.90;3.08;;;7.00;99.90;;;;;;5030875;28;20233;-76
2021/10/13 04:59:38;;;;;;;4.05;3.30;;;7.00;99.90;;;;;;5029916;28;20329;-76
2021/10/13 05:02:24;;;;;;;3.75;3.05;;;7.10;99.90;;;;;;5022804;28;20203;-76
2021/10/13 05:05:09;;;;;;;3.70;3.22;;;7.10;99.90;;;;;;5029657;28;20206;-76
2021/10/13 05:07:57;;;;;;;4.38;3.38;;;7.00;99.90;;;;;;5030027;28;20736;-75
2021/10/13 05:10:43;;;;;;;3.60;3.17;;;7.10;99.90;;;;;;5011142;28;20214;-76
2021/10/13 05:13:28;;;;;;;3.60;3.10;;;7.10;99.90;;;;;;5016684;28;20227;-76
2021/10/13 05:16:14;;;;;;;3.10;2.53;;;7.10;99.90;;;;;;5028743;28;20239;-76
2021/10/13 05:19:00;;;;;;;3.33;2.80;;;7.00;99.90;;;;;;5030567;28;20719;-76
2021/10/13 05:21:46;;;;;;;3.75;2.72;;;7.10;99.90;;;;;;5028543;28;20305;-76
2021/10/13 05:24:32;;;;;;;3.65;2.83;;;7.10;99.90;;;;;;5030943;28;20202;-76
2021/10/13 05:27:18;;;;;;;3.63;2.83;;;7.20;99.90;;;;;;5030603;28;20719;-76
2021/10/13 05:30:04;;;;;;;2.95;2.50;;;7.30;99.90;;;;;;5031121;28;20256;-76
2021/10/13 05:32:50;;;;;;;4.28;3.22;;;7.20;99.90;;;;;;5028889;28;20227;-76
2021/10/13 05:35:36;;;;;;;3.10;2.70;;;7.30;99.90;;;;;;5023994;28;20253;-76
2021/10/13 05:38:21;;;;;;;3.20;2.78;;;7.30;99.90;;;;;;5022579;28;20206;-76
2021/10/13 05:41:08;;;;;;;3.53;2.67;;;7.30;99.90;;;;;;5023924;28;20700;-76
2021/10/13 05:43:54;;;;;;;2.95;2.47;;;7.30;99.90;;;;;;5034378;28;20289;-76
2021/10/13 05:46:39;;;;;;;2.90;2.55;;;7.30;99.90;;;;;;5023138;28;20297;-76
2021/10/13 05:49:25;;;;;;;4.25;3.15;;;7.30;99.90;;;;;;5022931;28;20211;-76
2021/10/13 05:52:11;;;;;;;3.75;2.70;;;7.20;99.90;;;;;;5034577;28;20211;-76
2021/10/13 05:54:56;;;;;;;4.40;2.78;;;7.10;99.90;;;;;;5033077;28;20266;-76
2021/10/13 05:57:43;;;;;;;3.85;3.10;;;7.00;99.90;;;;;;5029595;28;20234;-76
2021/10/13 06:00:29;;;;;;;4.72;2.95;;;7.00;99.90;;;;;;5020037;28;20214;-75
2021/10/13 06:03:15;;;;;;;2.95;2.40;;;7.00;99.90;;;;;;5024105;28;20209;-75
2021/10/13 06:06:00;;;;;;;3.20;2.67;;;6.90;99.90;;;;;;5035042;28;20822;-75
2021/10/13 06:08:46;;;;;;;5.38;3.00;;;6.90;99.90;;;;;;5033791;28;20337;-75
2021/10/13 06:11:32;;;;;;;3.83;2.78;;;7.10;99.90;;;;;;5033302;28;20205;-76
2021/10/13 06:14:19;;;;;;;3.72;2.45;;;7.20;99.90;;;;;;5031663;28;20240;-76
2021/10/13 06:17:06;;;;;;;4.95;2.80;;;7.20;99.90;;;;;;5030590;28;20237;-75
2021/10/13 06:19:52;;;;;;;3.17;2.70;;;7.30;99.90;;;;;;5029004;28;20212;-76
2021/10/13 06:22:38;;;;;;;4.50;3.35;;;7.30;99.90;;;;;;5030160;28;20452;-76
2021/10/13 06:25:23;;;;;;;11.73;3.67;;;7.40;99.90;;;;;;5027338;28;20330;-76
2021/10/13 06:28:09;;;;;;;4.32;3.55;;;7.40;99.90;;;;;;5030930;28;20675;-75
2021/10/13 06:30:56;;;;;;;3.10;2.72;;;7.40;99.90;;;;;;5025338;28;20211;-76
2021/10/13 06:33:42;;;;;;;3.95;3.20;;;7.50;99.90;;;;;;5019620;28;20221;-75
2021/10/13 06:36:27;;;;;;;3.58;2.67;;;7.60;99.90;;;;;;5036170;28;20596;-76
2021/10/13 06:39:13;;;;;;;3.67;3.00;;;7.60;99.90;;;;;;5033078;28;20569;-76
2021/10/13 06:41:59;;;;;;;6.25;2.60;;;7.70;99.90;;;;;;5027290;28;20702;-75
2021/10/13 06:44:44;;;;;;;4.10;2.83;;;7.70;99.90;;;;;;5013786;28;20198;-76
2021/10/13 06:47:31;;;;;;;3.90;3.15;;;7.70;99.90;;;;;;5017275;28;20231;-76
2021/10/13 06:50:17;;;;;;;3.55;3.25;;;7.80;99.90;;;;;;5029471;28;20203;-75
2021/10/13 06:53:03;;;;;;;5.47;4.53;;;7.80;99.90;;;;;;5030005;28;20337;-76
2021/10/13 06:55:52;;;;;;;7.38;4.65;;;7.80;99.90;;;;;;5025456;28;20688;-76
2021/10/13 06:58:38;;;;;;;8.75;7.13;;;7.90;99.90;;;;;;5024853;28;20212;-76
2021/10/13 07:01:23;;;;;;;18.15;7.70;;;8.00;99.90;;;;;;5033082;28;20205;-76
2021/10/13 07:04:10;;;;;;;9.32;7.45;;;8.00;99.90;;;;;;5029148;28;20571;-76
2021/10/13 07:06:56;;;;;;;8.40;6.18;;;8.10;99.90;;;;;;5029548;28;20613;-76
2021/10/13 07:09:41;;;;;;;7.65;6.13;;;8.10;99.90;;;;;;5028513;28;20207;-76
2021/10/13 07:12:27;;;;;;;8.00;6.18;;;8.10;99.90;;;;;;5033109;28;20566;-76
2021/10/13 07:15:13;;;;;;;10.05;6.90;;;8.20;99.90;;;;;;5031713;28;20239;-76
2021/10/13 07:17:59;;;;;;;10.95;7.00;;;8.10;99.90;;;;;;5031867;28;20221;-76
2021/10/13 07:20:46;;;;;;;13.52;9.40;;;8.20;99.90;;;;;;5027025;28;20205;-76
2021/10/13 07:23:32;;;;;;;10.60;8.07;;;8.30;99.90;;;;;;5023110;28;20270;-76
2021/10/13 07:26:17;;;;;;;9.90;7.85;;;8.30;99.90;;;;;;5021068;28;20232;-76
2021/10/13 07:29:03;;;;;;;11.60;7.83;;;8.40;99.90;;;;;;5032268;28;20357;-76
2021/10/13 07:31:49;;;;;;;14.40;10.27;;;8.40;99.90;;;;;;5024375;28;20449;-76
2021/10/13 07:34:35;;;;;;;13.10;9.83;;;8.40;99.90;;;;;;5027179;28;20473;-75
2021/10/13 07:37:22;;;;;;;14.25;10.70;;;8.50;99.90;;;;;;5034438;28;20459;-76
2021/10/13 07:40:09;;;;;;;18.57;13.10;;;8.50;99.90;;;;;;5032184;28;20282;-76
2021/10/13 07:42:55;;;;;;;18.07;13.83;;;8.60;99.90;;;;;;5012462;28;20480;-75
2021/10/13 07:45:41;;;;;;;16.00;12.63;;;8.70;99.90;;;;;;5019114;28;20436;-72
2021/10/13 07:48:28;;;;;;;19.73;13.53;;;8.80;99.90;;;;;;5027943;28;20453;-75
2021/10/13 07:51:13;;;;;;;21.30;14.23;;;8.80;99.90;;;;;;5022498;28;20556;-75
2021/10/13 07:54:00;;;;;;;21.20;15.50;;;8.90;99.90;;;;;;5030856;28;20243;-75
2021/10/13 07:56:47;;;;;;;25.73;17.03;;;8.90;99.90;;;;;;5019990;28;20829;-74
2021/10/13 07:59:32;;;;;;;23.10;12.17;;;9.00;99.90;;;;;;5023732;28;20974;-75
2021/10/13 08:02:18;;;;;;;17.52;12.00;;;9.10;99.90;;;;;;5031034;28;20453;-75
2021/10/13 08:05:05;;;;;;;17.33;10.50;;;9.30;99.90;;;;;;5031531;28;20332;-74
2021/10/13 08:07:50;;;;;;;16.17;10.33;;;9.40;99.90;;;;;;5029840;28;20720;-75
2021/10/13 08:10:38;;;;;;;17.13;12.03;;;9.50;99.90;;;;;;5025248;28;20500;-74
2021/10/13 08:13:24;;;;;;;17.37;10.90;;;9.60;99.90;;;;;;5022614;28;20542;-73
2021/10/13 08:16:10;;;;;;;22.90;13.50;;;9.60;99.90;;;;;;5028938;28;20461;-74
2021/10/13 08:18:55;;;;;;;20.87;12.60;;;9.60;99.90;;;;;;5022222;28;20738;-74
2021/10/13 08:21:41;;;;;;;21.70;13.03;;;9.60;99.90;;;;;;5025088;28;20462;-74
2021/10/13 08:24:27;;;;;;;23.80;12.60;;;9.60;99.90;;;;;;5022524;28;20788;-74
2021/10/13 08:27:14;;;;;;;24.33;13.13;;;9.40;99.90;;;;;;5030025;28;20572;-73
2021/10/13 08:29:59;;;;;;;27.20;13.13;;;9.40;99.90;;;;;;5027127;28;20481;-72
2021/10/13 08:32:45;;;;;;;23.10;13.93;;;9.30;99.90;;;;;;5023569;28;20458;-72
2021/10/13 08:35:32;;;;;;;25.33;14.80;;;9.30;99.90;;;;;;5024423;28;20537;-75
2021/10/13 08:38:18;;;;;;;28.97;17.10;;;9.30;99.90;;;;;;5023884;28;20452;-76
2021/10/13 08:41:05;;;;;;;27.23;16.30;;;9.40;99.90;;;;;;5021894;28;20920;-75
2021/10/13 08:43:52;;;;;;;28.50;17.30;;;9.40;99.90;;;;;;5030553;28;20479;-74
2021/10/13 08:46:38;;;;;;;34.33;15.80;;;9.50;99.90;;;;;;5031741;28;20440;-75
2021/10/13 08:49:24;;;;;;;21.97;15.93;;;9.50;99.90;;;;;;5029399;28;20460;-75
2021/10/13 08:52:11;;;;;;;26.97;16.70;;;9.60;99.90;;;;;;5031503;28;20427;-75
2021/10/13 08:54:57;;;;;;;21.07;15.30;;;9.60;99.90;;;;;;5029031;28;20459;-76
2021/10/13 08:57:42;;;;;;;23.23;16.60;;;9.70;99.90;;;;;;5030237;28;20454;-76
2021/10/13 09:00:29;;;;;;;29.63;15.97;;;9.70;99.90;;;;;;5021128;28;20452;-76
2021/10/13 09:03:29;;;;;;;26.13;15.93;;;9.80;99.90;;;;;;5030036;28;20868;-75
2021/10/13 09:06:17;;;;;;;32.63;17.23;;;9.90;99.90;;;;;;5031530;28;20475;-77
2021/10/13 09:09:05;;;;;;;22.10;16.03;;;10.00;99.90;;;;;;5030027;28;21032;-77
2021/10/13 09:11:51;;;;;;;27.17;15.70;;;10.00;99.90;;;;;;5029733;28;20455;-76
2021/10/13 09:14:37;;;;;;;29.50;16.87;;;10.10;99.90;;;;;;5030503;28;20967;-76
2021/10/13 09:17:24;;;;;;;32.83;17.60;;;10.00;99.90;;;;;;5023381;28;20910;-76
2021/10/13 09:20:17;;;;;;;28.60;16.07;;;10.00;99.90;;;;;;5029304;28;20963;-77
2021/10/13 09:23:06;;;;;;;32.97;17.90;;;9.90;99.90;;;;;;5030618;28;20980;-76
2021/10/13 09:26:06;;;;;;;27.83;15.93;;;9.80;99.90;;;;;;5030296;28;20451;-75
2021/10/13 09:28:59;;;;;;;24.70;15.80;;;9.70;99.90;;;;;;5022889;28;20476;-77
2021/10/13 09:31:44;;;;;;;25.07;16.10;;;9.60;99.90;;;;;;5014005;28;20954;-77
2021/10/13 09:34:32;;;;;;;26.57;16.77;;;9.60;99.90;;;;;;5030877;28;20841;-77
2021/10/13 09:37:19;;;;;;;32.50;16.37;;;9.70;99.90;;;;;;5031230;28;20463;-77
2021/10/13 09:40:06;;;;;;;28.53;17.73;;;9.80;99.90;;;;;;5030239;28;20451;-76
2021/10/13 09:42:54;;;;;;;27.30;16.93;;;9.90;99.90;;;;;;5024766;28;20787;-77
2021/10/13 09:45:40;;;;;;;29.60;16.33;;;9.90;99.90;;;;;;5019550;28;20636;-76
2021/10/13 09:48:29;;;;;;;26.63;16.37;;;9.70;99.90;;;;;;5030050;28;20448;-76
2021/10/13 09:51:21;;;;;;;23.20;17.80;;;9.60;99.90;;;;;;5030121;28;20498;-76
2021/10/13 09:54:09;;;;;;;25.07;17.80;;;9.70;99.90;;;;;;5021597;28;20535;-75
2021/10/13 09:56:55;;;;;;;24.13;16.73;;;9.60;99.90;;;;;;5029905;28;20480;-76
2021/10/13 09:59:59;;;;;;;25.50;17.50;;;9.70;99.90;;;;;;5024775;28;20432;-76
2021/10/13 10:02:47;;;;;;;32.20;18.60;;;9.60;99.90;;;;;;5025318;28;20448;-76
2021/10/13 10:05:35;;;;;;;29.17;19.10;;;9.60;99.90;;;;;;5014997;28;20453;-77
2021/10/13 10:08:22;;;;;;;31.27;21.13;;;9.60;99.90;;;;;;5028398;28;20451;-77
2021/10/13 10:11:08;;;;;;;28.67;20.13;;;9.50;99.90;;;;;;5021307;28;20441;-77
2021/10/13 10:13:54;;;;;;;32.63;20.30;;;9.40;99.90;;;;;;5028805;28;20873;-76
2021/10/13 10:16:41;;;;;;;43.13;21.57;;;9.50;99.90;;;;;;5032162;28;20446;-76
2021/10/13 10:19:28;;;;;;;36.80;19.90;;;9.60;99.90;;;;;;5033865;28;20454;-77
2021/10/13 10:22:15;;;;;;;27.60;19.63;;;9.70;99.90;;;;;;5033877;28;20828;-77
2021/10/13 10:25:08;;;;;;;34.90;18.93;;;9.80;99.90;;;;;;5029052;28;20524;-77
2021/10/13 10:27:53;;;;;;;24.30;18.03;;;9.90;99.90;;;;;;5033668;28;20610;-76
2021/10/13 10:30:40;;;;;;;32.53;19.17;;;10.00;99.90;;;;;;5027080;28;20451;-76
2021/10/13 10:33:26;;;;;;;22.00;17.53;;;10.00;99.90;;;;;;5024804;28;20461;-76
2021/10/13 10:36:11;;;;;;;28.23;14.90;;;10.20;99.90;;;;;;5030010;28;20457;-77
2021/10/13 10:38:57;;;;;;;22.10;14.97;;;10.20;99.90;;;;;;5031596;28;20563;-76
2021/10/13 10:41:46;;;;;;;28.03;14.90;;;10.20;99.90;;;;;;5028665;28;20594;-73
2021/10/13 10:44:33;;;;;;;20.67;13.53;;;10.30;99.90;;;;;;5025901;28;20522;-76
2021/10/13 10:47:19;;;;;;;21.83;13.17;;;10.40;99.90;;;;;;5029132;28;20447;-76
2021/10/13 10:50:06;;;;;;;16.60;12.70;;;10.40;99.90;;;;;;5029032;28;20433;-76
2021/10/13 10:53:08;;;;;;;17.83;11.97;;;10.40;99.90;;;;;;5029458;28;20428;-76
2021/10/13 10:55:54;;;;;;;17.73;13.53;;;10.40;99.90;;;;;;5029711;28;20469;-76
2021/10/13 10:58:45;;;;;;;29.07;15.93;;;10.40;99.90;;;;;;5023804;28;20924;-76
2021/10/13 11:01:31;;;;;;;21.80;13.27;;;10.40;99.90;;;;;;5013185;28;20548;-76
2021/10/13 11:04:17;;;;;;;22.57;15.40;;;10.50;99.90;;;;;;5029306;28;20461;-76
2021/10/13 11:07:03;;;;;;;201.50;84.23;;;10.60;99.90;;;;;;5029138;28;20456;-76
2021/10/13 11:09:59;;;;;;;38.17;18.50;;;10.70;99.90;;;;;;5025497;28;20430;-76
2021/10/13 11:12:48;;;;;;;21.37;12.17;;;10.80;99.90;;;;;;5025629;28;20529;-76
2021/10/13 11:15:38;;;;;;;15.30;10.90;;;10.90;99.90;;;;;;5025029;28;20871;-75
2021/10/13 11:18:24;;;;;;;10.53;8.13;;;11.00;99.90;;;;;;5031610;28;20559;-76
2021/10/13 11:21:10;;;;;;;13.30;9.27;;;11.10;99.90;;;;;;5031457;28;20510;-76
2021/10/13 11:23:59;;;;;;;14.50;10.37;;;11.10;99.90;;;;;;5028875;28;20443;-76
2021/10/13 11:26:45;;;;;;;21.67;11.47;;;10.90;99.90;;;;;;5027570;28;20518;-76
2021/10/13 11:29:33;;;;;;;14.27;10.40;;;10.80;99.90;;;;;;5025881;28;20455;-75
2021/10/13 11:32:23;;;;;;;13.20;9.73;;;10.80;99.90;;;;;;5025727;28;20434;-76
2021/10/13 11:35:09;;;;;;;15.97;10.10;;;10.80;99.90;;;;;;5028606;28;20569;-76
2021/10/13 11:37:55;;;;;;;14.30;10.30;;;11.00;99.90;;;;;;5032299;28;20460;-75
2021/10/13 11:40:41;;;;;;;24.77;11.73;;;11.20;99.90;;;;;;5027845;28;20454;-76
2021/10/13 11:43:26;;;;;;;12.90;9.40;;;11.40;99.90;;;;;;5020384;28;20826;-76
2021/10/13 11:46:17;;;;;;;10.57;8.60;;;11.60;99.90;;;;;;5028382;28;20459;-75
2021/10/13 11:49:05;;;;;;;13.63;8.37;;;11.50;99.90;;;;;;5031922;28;20454;-75
2021/10/13 11:52:13;;;;;;;13.17;8.97;;;11.50;99.90;;;;;;5032058;28;20431;-75
2021/10/13 11:55:06;;;;;;;14.87;8.90;;;11.70;99.90;;;;;;5032112;28;20468;-75
2021/10/13 11:57:53;;;;;;;16.50;9.80;;;11.90;99.90;;;;;;5012465;28;20440;-75
2021/10/13 12:00:46;;;;;;;16.73;10.23;;;11.80;99.90;;;;;;5025027;28;20450;-75
2021/10/13 12:03:33;;;;;;;13.90;8.60;;;11.60;99.90;;;;;;5031837;28;20522;-75
2021/10/13 12:06:20;;;;;;;14.10;8.57;;;11.70;99.90;;;;;;5033704;28;20475;-75
2021/10/13 12:09:08;;;;;;;13.50;8.97;;;12.00;99.90;;;;;;5031513;28;20435;-75
2021/10/13 12:11:54;;;;;;;10.70;7.33;;;12.30;99.90;;;;;;5031373;28;20418;-76
2021/10/13 12:14:40;;;;;;;12.63;8.60;;;12.30;99.90;;;;;;5023758;28;20420;-75
2021/10/13 12:17:27;;;;;;;10.03;7.57;;;12.50;99.90;;;;;;5022550;28;20487;-75
2021/10/13 12:20:20;;;;;;;12.27;7.53;;;12.60;99.90;;;;;;5029718;28;20431;-75
2021/10/13 12:23:15;;;;;;;10.37;7.70;;;12.60;99.90;;;;;;5023497;28;20513;-75
2021/10/13 12:26:12;;;;;;;13.27;6.20;;;12.60;99.90;;;;;;5029674;28;20455;-75
2021/10/13 12:28:58;;;;;;;13.10;6.67;;;12.40;99.90;;;;;;5019892;28;20460;-74
2021/10/13 12:31:45;;;;;;;12.57;6.90;;;12.50;99.90;;;;;;5028978;28;20452;-75
2021/10/13 12:34:31;;;;;;;9.83;5.67;;;12.70;99.90;;;;;;5028571;28;20438;-75
2021/10/13 12:37:17;;;;;;;7.97;5.80;;;12.90;99.90;;;;;;5030356;28;20441;-75
2021/10/13 12:40:15;;;;;;;7.87;5.53;;;13.30;99.90;;;;;;5028737;28;20872;-75
2021/10/13 12:43:19;;;;;;;7.10;5.67;;;13.50;99.90;;;;;;5015396;28;20464;-75
2021/10/13 12:46:26;;;;;;;11.83;6.03;;;13.60;99.90;;;;;;5027044;28;20435;-75
2021/10/13 12:49:14;;;;;;;9.37;6.57;;;13.40;99.90;;;;;;5028348;28;20433;-75
2021/10/13 12:52:03;;;;;;;14.00;5.87;;;13.40;99.90;;;;;;5027960;28;20505;-75
2021/10/13 12:54:50;;;;;;;8.47;5.70;;;13.30;99.90;;;;;;5028875;28;20576;-75
2021/10/13 12:57:38;;;;;;;9.30;5.80;;;13.20;99.90;;;;;;5012203;28;20965;-75
2021/10/13 13:00:23;;;;;;;8.97;6.13;;;13.10;99.90;;;;;;5030874;28;20431;-76
2021/10/13 13:03:09;;;;;;;20.20;6.97;;;13.00;99.90;;;;;;5021133;28;20455;-76
2021/10/13 13:05:55;;;;;;;9.33;5.83;;;13.00;99.90;;;;;;5014454;28;20391;-76
2021/10/13 13:08:41;;;;;;;12.30;6.00;;;13.00;99.90;;;;;;5018498;28;20881;-76
2021/10/13 13:11:27;;;;;;;9.00;5.97;;;13.10;99.90;;;;;;5025369;28;20484;-75
2021/10/13 13:14:14;;;;;;;13.80;6.30;;;13.20;99.90;;;;;;5016272;28;20980;-76
2021/10/13 13:17:00;;;;;;;7.10;5.23;;;13.10;99.90;;;;;;5021853;28;20496;-76
2021/10/13 13:19:45;;;;;;;15.30;7.50;;;13.00;99.90;;;;;;5025881;28;20927;-75
2021/10/13 13:22:31;;;;;;;10.27;6.40;;;13.00;99.90;;;;;;5023896;28;20423;-76
2021/10/13 13:25:16;;;;;;;7.60;5.23;;;12.90;99.90;;;;;;5025456;28;20421;-76
2021/10/13 13:28:02;;;;;;;9.80;5.70;;;12.90;99.90;;;;;;5030588;28;20480;-76
2021/10/13 13:30:49;;;;;;;6.20;4.80;;;12.80;99.90;;;;;;5029866;28;20585;-76
2021/10/13 13:33:35;;;;;;;10.00;5.90;;;12.70;99.90;;;;;;5015013;28;20446;-75
2021/10/13 13:36:21;;;;;;;9.07;6.27;;;12.50;99.90;;;;;;5023847;28;20457;-75
2021/10/13 13:39:07;;;;;;;10.50;6.50;;;12.40;99.90;;;;;;5025082;28;20506;-76
2021/10/13 13:41:53;;;;;;;12.53;6.17;;;12.40;99.90;;;;;;5030121;28;20992;-75
2021/10/13 13:44:38;;;;;;;10.47;5.47;;;12.40;99.90;;;;;;5030026;28;20419;-76
2021/10/13 13:47:25;;;;;;;11.93;6.60;;;12.40;99.90;;;;;;5025525;28;20683;-76
2021/10/13 13:50:11;;;;;;;12.50;6.00;;;12.40;99.90;;;;;;5023839;28;20443;-76
2021/10/13 13:52:57;;;;;;;6.77;5.33;;;12.20;99.90;;;;;;5033334;28;20549;-75
2021/10/13 13:55:43;;;;;;;9.80;5.90;;;12.30;99.90;;;;;;5029226;28;20846;-75
2021/10/13 13:58:30;;;;;;;7.67;5.87;;;12.30;99.90;;;;;;5033220;28;20458;-75
2021/10/13 14:01:17;;;;;;;11.50;7.90;;;12.30;99.90;;;;;;5034547;28;21204;-75
2021/10/13 14:04:04;;;;;;;9.10;5.87;;;12.20;99.90;;;;;;5026700;28;20499;-75
2021/10/13 14:06:50;;;;;;;8.00;5.33;;;12.20;99.90;;;;;;5029769;28;20467;-75
2021/10/13 14:09:36;;;;;;;7.27;4.87;;;12.10;99.90;;;;;;5032497;28;20595;-75
2021/10/13 14:12:22;;;;;;;10.20;5.23;;;12.00;99.90;;;;;;5029921;28;20537;-75
2021/10/13 14:15:09;;;;;;;7.03;5.23;;;12.00;99.90;;;;;;5031874;28;20813;-75
2021/10/13 14:17:55;;;;;;;14.03;4.60;;;11.90;99.90;;;;;;5021874;28;20484;-75
2021/10/13 14:20:43;;;;;;;10.67;5.50;;;11.90;99.90;;;;;;5025271;28;20818;-75
2021/10/13 14:23:29;;;;;;;6.27;4.70;;;11.80;99.90;;;;;;5027103;28;20437;-75
2021/10/13 14:26:15;;;;;;;7.90;4.77;;;11.80;99.90;;;;;;5023879;28;20519;-75
2021/10/13 14:29:01;;;;;;;12.03;5.53;;;11.80;99.90;;;;;;5033736;28;20798;-75
2021/10/13 14:31:49;;;;;;;10.77;5.40;;;11.80;99.90;;;;;;5024616;28;21032;-75